Terminal Aerodrome Forecast
Issued by NWS Shreveport, LA

Home | Current Version | Previous Version | Text Only | Print | Product List | Glossary On
Versions: 1 2 3 4 5 6 7 8 9 10 11 12 13
000
FTUS44 KSHV 241222 RRA
TAFGGG
TAF
KGGG 241222Z 2412/2512 22006KT P6SM SCT015 BKN040 OVC100
      TEMPO 2413/2415 BKN030 OVC070
     FM241600 22009KT P6SM VCTS BKN045CB BKN120
      TEMPO 2418/2421 VRB15G25KT 5SM -TSRA BKN050CB BKN100
     FM242200 19009KT P6SM VCTS BKN040CB
     FM250000 16007KT P6SM BKN090=

USA.gov is the U.S. government's official web portal to all federal, state and local government web resources and services.